Pagrindinis puslapis
METAR-TAF:

METAR-TAF

Oro uostai :

Luangnamta, Laosas

platuma: 20-57-38N, ilguma: 101-24-09E, Aukštis: 600 m

Dabartinis oras

Ataskaita buvo paskelbta 9 valandos ir 30 minutes, ne 11:00 UTC
Vėjas 2 kt iš Pietryčių
Temperatūra 23°C
Drėgmė 65%
Slėgis 1018 hPa
Matomumas: 6000 m
Išsisklaidę debesys ne aukštis 2000 ft

METAR: VLLN 171100Z 14002KT 6000 SCT020 23/16 Q1018 NOSIG

Laikas: 02:00 (20:30 UTC)

Prognozė

Ataskaita buvo paskelbta 3 valandos ir 30 minutes, ne 17:00 UTC
Prognozė galioja nuo 17 metu 18 UTC su 18 metu 18 UTC
Vėjas 10 kt iš Pietryčių
Matomumas: 4000 m
Išsisklaidę debesys ne aukštis 2000 ft
Su prošvaistėmis ne aukštis 10000 ft
rūkana

TAF: VLLN 171700Z 1718/1818 14010KT 4000 BR SCT020 BKN100

Orai ataskaitas ir orų prognozės (METAR, TAF).

turimą stotys yra geltonos ir raudonos taškus žemėlapyje.

Perkelti pele per norėdami pamatyti stoties vardą.

Tada spustelėkite, norėdami matyti oro stebėjimo ir prognozės.

Norėdami pakeisti žemėlapį: spustelėkite ant žalios mygtukų su juodo kryžiaus žemyn,; žalią mygtuką su brūkšneliu, jei norite nutolinti; arba žalių rodyklių gretimoms žemėlapius.


METAR-TAF: